Time;durP1;ratioP1;P1;durP2;ratioP2;P2;SDS_P1;SDS_P2;PMS_P1;PMS_P2;Temp;Humidity;BMP_temperature;BMP_pressure;BME280_temperature;BME280_humidity;BME280_pressure;Samples;Min_cycle;Max_cycle;Signal;HPM_P1;HPM_P2
2022/06/24 00:00:16;;;;;;;3.38;2.72;;;13.00;99.90;;;;;;4934904;29;20042;-64
2022/06/24 00:02:52;;;;;;;4.30;2.42;;;13.30;99.90;;;;;;4933488;29;20059;-64
2022/06/24 00:05:19;;;;;;;5.32;3.03;;;13.40;99.90;;;;;;4933311;29;20042;-64
2022/06/24 00:07:52;;;;;;;9.02;6.75;;;13.60;99.90;;;;;;4933596;29;20028;-69
2022/06/24 00:10:21;;;;;;;5.60;2.97;;;13.80;99.90;;;;;;4964172;28;20053;-64
2022/06/24 00:12:50;;;;;;;3.83;2.10;;;14.00;99.90;;;;;;5013317;28;20030;-63
2022/06/24 00:15:28;;;;;;;4.43;1.90;;;14.10;99.90;;;;;;5013909;28;20056;-63
2022/06/24 00:17:56;;;;;;;3.10;2.35;;;14.30;99.90;;;;;;5013925;28;20050;-64
2022/06/24 00:20:23;;;;;;;7.72;4.95;;;14.40;99.90;;;;;;5012749;28;20048;-68
2022/06/24 00:22:52;;;;;;;5.32;3.17;;;14.60;99.90;;;;;;5011624;28;20066;-63
2022/06/24 00:25:26;;;;;;;3.85;3.08;;;14.70;99.90;;;;;;5010707;28;20057;-64
2022/06/24 00:28:09;;;;;;;5.82;2.38;;;14.90;99.90;;;;;;5013005;28;20087;-63
2022/06/24 00:30:38;;;;;;;3.40;2.30;;;15.20;99.90;;;;;;5008344;28;20042;-68
2022/06/24 00:33:11;;;;;;;1.90;1.45;;;15.40;99.90;;;;;;5012904;28;20026;-63
2022/06/24 00:35:41;;;;;;;2.58;1.92;;;15.60;99.90;;;;;;5012049;28;20596;-68
2022/06/24 00:38:33;;;;;;;3.92;2.17;;;15.70;99.90;;;;;;5017676;28;20824;-69
2022/06/24 00:41:14;;;;;;;4.35;2.10;;;15.80;99.90;;;;;;5015277;28;20060;-66
2022/06/24 00:43:55;;;;;;;4.70;2.80;;;16.00;99.90;;;;;;5008182;28;20026;-66
2022/06/24 00:46:27;;;;;;;2.47;1.75;;;16.20;99.90;;;;;;5009340;28;20022;-66
2022/06/24 00:48:57;;;;;;;2.42;1.85;;;16.30;99.90;;;;;;5012441;28;20084;-67
2022/06/24 00:51:32;;;;;;;3.33;1.80;;;16.50;99.90;;;;;;5009324;28;20022;-67
2022/06/24 00:54:06;;;;;;;2.00;1.70;;;16.50;99.90;;;;;;5015810;28;20030;-67
2022/06/24 00:56:33;;;;;;;4.53;1.90;;;16.60;99.90;;;;;;5012784;28;20095;-63
2022/06/24 00:59:06;;;;;;;3.92;2.30;;;16.60;99.90;;;;;;5014612;28;20026;-64
2022/06/24 01:01:43;;;;;;;3.08;1.85;;;16.60;99.90;;;;;;5012132;28;20022;-63
2022/06/24 01:04:12;;;;;;;4.15;1.70;;;16.80;99.90;;;;;;5006476;28;20434;-63
2022/06/24 01:06:41;;;;;;;2.17;1.58;;;16.80;99.90;;;;;;5009145;28;20062;-62
2022/06/24 01:09:09;;;;;;;4.55;2.10;;;16.90;99.90;;;;;;5011653;28;20036;-63
2022/06/24 01:11:41;;;;;;;2.78;1.70;;;16.90;99.90;;;;;;5011877;28;20462;-66
2022/06/24 01:14:09;;;;;;;2.83;1.70;;;17.00;99.90;;;;;;5011346;28;20096;-67
2022/06/24 01:16:37;;;;;;;2.17;1.42;;;17.10;99.90;;;;;;5012196;28;20478;-66
2022/06/24 01:19:09;;;;;;;6.85;4.15;;;17.10;99.90;;;;;;5013452;28;20033;-63
2022/06/24 01:21:43;;;;;;;3.17;2.50;;;17.20;99.90;;;;;;5013220;28;20018;-62
2022/06/24 01:24:17;;;;;;;4.22;1.60;;;17.30;99.90;;;;;;5010346;28;20534;-63
2022/06/24 01:26:46;;;;;;;2.38;1.48;;;17.30;99.60;;;;;;5014310;28;20075;-63
2022/06/24 01:29:14;;;;;;;1.58;0.95;;;17.40;99.80;;;;;;5011223;28;20046;-64
2022/06/24 01:31:42;;;;;;;2.10;1.20;;;17.60;99.00;;;;;;5011418;28;20092;-68
2022/06/24 01:34:10;;;;;;;2.00;1.00;;;17.70;99.40;;;;;;5012008;28;20040;-68
2022/06/24 01:36:38;;;;;;;0.90;0.80;;;17.80;99.30;;;;;;5012056;28;20018;-64
2022/06/24 01:39:05;;;;;;;1.67;0.90;;;17.80;98.70;;;;;;5012362;28;21265;-63
2022/06/24 01:41:33;;;;;;;1.38;0.82;;;18.00;98.50;;;;;;5012731;28;20032;-67
2022/06/24 01:44:01;;;;;;;2.42;1.75;;;18.10;97.10;;;;;;5012645;28;20089;-63
2022/06/24 01:46:29;;;;;;;5.22;2.03;;;18.00;98.60;;;;;;4995800;28;20406;-66
2022/06/24 01:48:56;;;;;;;6.05;2.10;;;18.00;98.90;;;;;;5011855;28;20022;-67
2022/06/24 01:51:25;;;;;;;2.45;1.30;;;18.10;98.30;;;;;;5011329;28;20176;-67
2022/06/24 01:53:53;;;;;;;1.48;0.73;;;18.20;97.30;;;;;;5013221;28;20018;-63
2022/06/24 01:56:20;;;;;;;1.92;0.88;;;18.10;96.60;;;;;;5008162;28;20037;-63
2022/06/24 01:58:48;;;;;;;1.95;1.20;;;18.20;96.60;;;;;;5011445;28;20026;-66
2022/06/24 02:01:15;;;;;;;3.40;0.95;;;18.10;96.10;;;;;;5011325;28;20021;-62
2022/06/24 02:03:42;;;;;;;2.28;1.02;;;18.00;96.50;;;;;;5011699;28;20030;-66
2022/06/24 02:06:11;;;;;;;2.65;1.55;;;18.10;96.80;;;;;;5013599;28;20029;-66
2022/06/24 02:08:39;;;;;;;7.00;3.60;;;18.10;96.90;;;;;;5015072;28;20498;-63
2022/06/24 02:13:55;;;;;;;4.57;2.88;;;18.30;97.10;;;;;;5007905;28;20024;-64
2022/06/24 02:16:22;;;;;;;5.45;1.25;;;18.50;97.30;;;;;;5011415;28;20363;-66
2022/06/24 02:18:49;;;;;;;2.30;1.30;;;18.70;95.80;;;;;;5011466;28;20018;-63
2022/06/24 02:21:17;;;;;;;4.05;0.98;;;18.80;95.90;;;;;;5009772;28;20022;-67
2022/06/24 02:23:44;;;;;;;3.90;1.73;;;18.90;95.40;;;;;;5011240;28;20021;-67
2022/06/24 02:26:12;;;;;;;5.57;3.05;;;19.00;95.40;;;;;;5008732;28;20060;-63
2022/06/24 02:28:39;;;;;;;2.42;1.77;;;19.40;94.80;;;;;;5010028;28;20037;-63
2022/06/24 02:31:06;;;;;;;4.18;3.25;;;19.60;93.90;;;;;;5010661;28;20395;-67
2022/06/24 02:33:33;;;;;;;2.30;1.05;;;19.60;94.20;;;;;;5008827;28;20021;-63
2022/06/24 02:36:01;;;;;;;3.67;1.10;;;19.60;94.20;;;;;;5011570;28;20079;-66
2022/06/24 02:38:28;;;;;;;1.88;1.13;;;19.80;93.60;;;;;;5011663;28;20549;-67
2022/06/24 02:40:58;;;;;;;5.15;1.60;;;19.90;93.40;;;;;;5009940;28;20112;-65
2022/06/24 02:43:29;;;;;;;3.53;1.27;;;19.80;94.00;;;;;;5008015;28;20037;-67
2022/06/24 02:46:01;;;;;;;3.50;1.75;;;19.90;93.30;;;;;;5015022;28;20032;-64
2022/06/24 02:48:29;;;;;;;2.33;1.73;;;19.80;93.60;;;;;;5008804;28;20139;-67
2022/06/24 02:50:59;;;;;;;5.25;2.63;;;19.70;93.20;;;;;;5009568;28;20026;-67
2022/06/24 02:53:28;;;;;;;3.53;2.00;;;19.50;93.20;;;;;;5008870;28;20026;-63
2022/06/24 02:56:01;;;;;;;3.58;1.80;;;19.40;93.90;;;;;;5009668;28;20022;-63
2022/06/24 02:58:28;;;;;;;2.63;1.58;;;19.40;94.20;;;;;;5010129;28;20060;-62
2022/06/24 03:00:55;;;;;;;2.47;1.08;;;19.40;92.90;;;;;;5009476;28;20021;-62
2022/06/24 03:03:23;;;;;;;1.70;1.10;;;19.50;93.10;;;;;;5008830;28;20041;-67
2022/06/24 03:05:51;;;;;;;1.95;1.20;;;19.80;93.20;;;;;;5009519;28;20030;-62
2022/06/24 03:08:20;;;;;;;2.70;1.58;;;20.20;92.00;;;;;;5008593;28;20037;-62
2022/06/24 03:10:49;;;;;;;3.78;1.70;;;20.00;92.30;;;;;;5007503;28;20501;-65
2022/06/24 03:13:17;;;;;;;2.33;1.38;;;19.90;92.30;;;;;;5009770;28;20026;-67
2022/06/24 03:15:48;;;;;;;2.90;1.48;;;19.70;92.80;;;;;;5010115;28;20029;-67
2022/06/24 03:18:16;;;;;;;2.42;1.40;;;19.60;93.00;;;;;;5008916;28;20030;-63
2022/06/24 03:20:44;;;;;;;3.92;1.23;;;19.70;93.10;;;;;;5008980;28;20088;-63
2022/06/24 03:23:11;;;;;;;4.07;2.55;;;19.60;92.90;;;;;;5005887;28;20033;-62
2022/06/24 03:25:38;;;;;;;5.35;2.40;;;19.50;93.40;;;;;;5008136;28;20029;-62
2022/06/24 03:28:06;;;;;;;2.70;1.60;;;19.50;93.00;;;;;;5013521;28;20025;-65
2022/06/24 03:30:37;;;;;;;5.30;1.42;;;19.40;93.00;;;;;;5012339;28;20046;-63
2022/06/24 03:33:05;;;;;;;1.90;1.13;;;19.30;93.40;;;;;;5010842;28;20041;-62
2022/06/24 03:35:32;;;;;;;4.25;1.10;;;19.20;94.00;;;;;;5011205;28;20083;-66
2022/06/24 03:37:59;;;;;;;2.90;1.27;;;19.20;93.70;;;;;;5011066;28;20048;-66
2022/06/24 03:40:26;;;;;;;1.40;0.82;;;19.20;94.20;;;;;;5009224;28;20026;-63
2022/06/24 03:42:54;;;;;;;2.20;0.70;;;19.20;93.80;;;;;;5011754;28;20077;-67
2022/06/24 03:45:21;;;;;;;1.75;0.90;;;19.20;93.20;;;;;;5011328;28;20529;-67
2022/06/24 03:47:48;;;;;;;1.45;0.80;;;19.20;92.70;;;;;;5010837;28;20480;-68
2022/06/24 03:50:16;;;;;;;1.95;1.00;;;19.10;92.70;;;;;;5012173;28;20386;-63
2022/06/24 03:52:43;;;;;;;1.77;1.35;;;19.10;93.50;;;;;;5012059;28;20026;-66
2022/06/24 03:55:11;;;;;;;2.75;1.20;;;19.10;93.80;;;;;;5003299;28;20022;-66
2022/06/24 03:57:39;;;;;;;3.85;1.02;;;18.90;93.30;;;;;;5012810;28;20049;-62
2022/06/24 04:00:07;;;;;;;0.90;0.68;;;18.80;93.30;;;;;;5017782;28;20556;-65
2022/06/24 04:02:35;;;;;;;2.83;0.60;;;18.70;92.60;;;;;;4320749;28;10000729;-63
2022/06/24 04:05:02;;;;;;;1.58;0.63;;;18.60;93.10;;;;;;5015738;28;20079;-68
2022/06/24 04:07:29;;;;;;;1.55;0.70;;;18.70;92.40;;;;;;5010964;28;20030;-67
2022/06/24 04:09:56;;;;;;;2.00;0.80;;;18.60;92.70;;;;;;5012869;28;20037;-63
2022/06/24 04:12:24;;;;;;;2.15;0.55;;;18.60;93.70;;;;;;5007826;28;20105;-63
2022/06/24 04:17:36;;;;;;;2.17;0.40;;;18.50;92.90;;;;;;5004012;28;20079;-66
2022/06/24 04:20:04;;;;;;;0.60;0.47;;;18.40;93.30;;;;;;5007296;28;20509;-63
2022/06/24 04:22:31;;;;;;;1.23;0.80;;;18.50;93.10;;;;;;5009824;28;20061;-66
2022/06/24 04:24:58;;;;;;;2.17;0.90;;;18.50;92.70;;;;;;5012766;28;20034;-66
2022/06/24 04:27:25;;;;;;;3.97;0.80;;;18.50;93.10;;;;;;5010103;28;20812;-63
2022/06/24 04:29:57;;;;;;;1.30;0.70;;;18.60;93.30;;;;;;5008480;28;20038;-62
2022/06/24 04:32:24;;;;;;;3.20;0.90;;;18.60;93.00;;;;;;5014100;28;20081;-62
2022/06/24 04:34:51;;;;;;;4.13;0.90;;;18.50;92.90;;;;;;5005286;28;20639;-65
2022/06/24 04:37:19;;;;;;;1.38;0.50;;;18.50;92.70;;;;;;5011282;28;20497;-64
2022/06/24 04:39:46;;;;;;;2.50;0.90;;;18.40;92.80;;;;;;5009817;28;20397;-63
2022/06/24 04:42:13;;;;;;;1.30;0.70;;;18.40;92.50;;;;;;5014872;28;20142;-66
2022/06/24 04:44:40;;;;;;;1.88;1.00;;;18.40;93.00;;;;;;5011679;28;20490;-62
2022/06/24 04:47:07;;;;;;;1.85;0.70;;;18.40;93.30;;;;;;5011751;28;20024;-67
2022/06/24 04:49:34;;;;;;;1.23;0.50;;;18.40;93.80;;;;;;5014057;28;20450;-63
2022/06/24 04:52:19;;;;;;;1.48;0.90;;;18.30;94.00;;;;;;5011650;28;20014;-67
2022/06/24 04:54:47;;;;;;;1.50;1.10;;;18.30;93.30;;;;;;5008142;28;20030;-63
2022/06/24 04:57:15;;;;;;;2.10;0.85;;;18.40;92.90;;;;;;5007629;28;20052;-63
2022/06/24 04:59:42;;;;;;;2.80;0.70;;;18.40;93.00;;;;;;5009007;28;20033;-63
2022/06/24 05:02:09;;;;;;;1.65;0.70;;;18.30;93.30;;;;;;5005461;28;20022;-63
2022/06/24 05:04:37;;;;;;;0.95;0.50;;;18.40;92.90;;;;;;5008483;28;20029;-67
2022/06/24 05:07:05;;;;;;;0.88;0.40;;;18.40;92.40;;;;;;5007734;28;20083;-67
2022/06/24 05:09:33;;;;;;;2.83;0.70;;;18.60;92.60;;;;;;5011207;28;20021;-67
2022/06/24 05:12:01;;;;;;;1.48;0.55;;;19.00;92.40;;;;;;5013740;28;20079;-64
2022/06/24 05:14:32;;;;;;;1.27;0.70;;;19.40;91.60;;;;;;5010202;28;20026;-64
2022/06/24 05:16:59;;;;;;;0.65;0.60;;;19.80;90.80;;;;;;5007337;28;20054;-65
2022/06/24 05:19:26;;;;;;;1.92;0.95;;;19.70;90.90;;;;;;5011296;28;20061;-63
2022/06/24 05:21:54;;;;;;;1.63;0.50;;;19.50;91.10;;;;;;5015321;28;20030;-63
2022/06/24 05:24:22;;;;;;;1.98;0.50;;;19.20;91.40;;;;;;5013426;28;20048;-61
2022/06/24 05:26:49;;;;;;;3.20;0.60;;;19.10;91.00;;;;;;5016478;28;20069;-62
2022/06/24 05:29:16;;;;;;;1.02;0.50;;;19.00;90.70;;;;;;5069242;23;20529;-63
2022/06/24 05:31:45;;;;;;;3.40;0.75;;;18.90;90.80;;;;;;4946207;29;20507;-62
2022/06/24 05:34:12;;;;;;;0.75;0.50;;;18.80;91.40;;;;;;4944136;29;20091;-64
2022/06/24 05:36:40;;;;;;;2.72;0.70;;;18.70;91.40;;;;;;4944324;28;20630;-61
2022/06/24 05:39:07;;;;;;;1.50;0.60;;;18.60;91.60;;;;;;4947901;28;20035;-61
2022/06/24 05:41:35;;;;;;;1.40;0.40;;;18.50;92.00;;;;;;4946690;29;20480;-61
2022/06/24 05:44:02;;;;;;;1.73;0.70;;;18.50;91.90;;;;;;4945780;29;20055;-60
2022/06/24 05:46:29;;;;;;;1.50;0.82;;;18.40;92.10;;;;;;4944346;29;20027;-65
2022/06/24 05:48:57;;;;;;;1.73;0.82;;;18.30;92.50;;;;;;4944025;28;20062;-62
2022/06/24 05:51:25;;;;;;;1.83;0.77;;;18.30;92.80;;;;;;4944407;29;20357;-64
2022/06/24 05:56:38;;;;;;;1.50;0.80;;;18.30;93.00;;;;;;4948230;29;20141;-62
2022/06/24 05:59:05;;;;;;;1.77;1.00;;;18.40;93.00;;;;;;4945029;29;20408;-63
2022/06/24 06:01:32;;;;;;;3.28;1.15;;;18.40;93.00;;;;;;4935345;28;20551;-63
2022/06/24 06:03:59;;;;;;;2.67;1.27;;;18.30;92.80;;;;;;4923470;29;20503;-63
2022/06/24 06:06:26;;;;;;;1.63;1.00;;;18.20;93.10;;;;;;4925010;29;20034;-63
2022/06/24 06:08:54;;;;;;;3.67;1.30;;;18.10;93.40;;;;;;4926544;29;20189;-63
2022/06/24 06:11:23;;;;;;;5.38;1.40;;;18.00;93.40;;;;;;4927624;29;20389;-64
2022/06/24 06:13:52;;;;;;;1.85;0.77;;;17.90;93.50;;;;;;4926578;29;20019;-63
2022/06/24 06:16:21;;;;;;;3.78;1.35;;;17.70;93.90;;;;;;4924912;29;20032;-61
2022/06/24 06:18:50;;;;;;;4.18;1.35;;;17.60;94.10;;;;;;4926322;29;20047;-61
2022/06/24 06:21:17;;;;;;;3.25;1.20;;;17.60;93.80;;;;;;4925918;29;20047;-62
2022/06/24 06:23:44;;;;;;;2.03;0.95;;;17.60;94.00;;;;;;4925810;29;20055;-62
2022/06/24 06:26:12;;;;;;;3.03;1.20;;;17.60;93.80;;;;;;4924232;29;20138;-60
2022/06/24 06:28:41;;;;;;;3.17;1.13;;;17.60;93.90;;;;;;4921327;29;20456;-61
2022/06/24 06:31:09;;;;;;;2.75;1.23;;;17.50;93.90;;;;;;4927722;29;20046;-61
2022/06/24 06:33:37;;;;;;;2.53;1.42;;;17.40;93.70;;;;;;4923290;29;20169;-64
2022/06/24 06:36:06;;;;;;;5.15;1.90;;;17.40;93.80;;;;;;4925241;29;21074;-65
2022/06/24 06:38:34;;;;;;;2.50;1.48;;;17.30;93.70;;;;;;4922908;29;20495;-60
2022/06/24 06:41:01;;;;;;;3.67;1.70;;;17.20;93.80;;;;;;4926010;29;20032;-61
2022/06/24 06:43:29;;;;;;;2.15;1.50;;;17.00;94.40;;;;;;4924047;29;20032;-61
2022/06/24 06:45:57;;;;;;;3.22;2.00;;;16.90;94.40;;;;;;4926331;29;20155;-64
2022/06/24 06:48:25;;;;;;;2.08;1.00;;;16.80;94.60;;;;;;4927465;29;20669;-62
2022/06/24 06:50:56;;;;;;;1.67;1.20;;;16.70;94.70;;;;;;4923143;29;20155;-68
2022/06/24 06:53:27;;;;;;;1.33;1.02;;;16.50;95.00;;;;;;4922389;29;20023;-68
2022/06/24 06:55:56;;;;;;;4.05;1.85;;;16.30;95.50;;;;;;4922595;29;20627;-62
2022/06/24 06:58:23;;;;;;;1.90;0.95;;;16.20;95.60;;;;;;4921549;29;20492;-68
2022/06/24 07:00:51;;;;;;;2.25;1.10;;;16.00;96.30;;;;;;4921102;29;20504;-67
2022/06/24 07:03:19;;;;;;;3.70;1.17;;;15.90;96.10;;;;;;4925048;29;20493;-65
2022/06/24 07:05:46;;;;;;;3.88;1.17;;;15.70;96.40;;;;;;4924414;29;20028;-64
2022/06/24 07:08:15;;;;;;;4.13;1.83;;;15.70;96.40;;;;;;4930169;29;20044;-65
2022/06/24 07:10:43;;;;;;;2.10;1.20;;;15.70;96.10;;;;;;4930554;29;20143;-64
2022/06/24 07:13:12;;;;;;;3.00;2.10;;;15.60;96.50;;;;;;4927478;29;20492;-65
2022/06/24 07:15:40;;;;;;;2.88;1.83;;;15.50;96.80;;;;;;4926365;29;20931;-61
2022/06/24 07:18:07;;;;;;;2.60;1.58;;;15.20;97.10;;;;;;4925385;29;20110;-65
2022/06/24 07:20:34;;;;;;;11.77;7.40;;;15.00;97.50;;;;;;4927265;29;20039;-65
2022/06/24 07:23:02;;;;;;;7.05;4.22;;;14.80;98.00;;;;;;4925181;29;20403;-61
2022/06/24 07:25:32;;;;;;;6.85;2.60;;;14.70;98.30;;;;;;4930543;29;20114;-62
2022/06/24 07:28:00;;;;;;;3.58;2.05;;;14.50;98.80;;;;;;4925765;29;20027;-66
2022/06/24 07:30:27;;;;;;;4.25;1.80;;;14.40;99.10;;;;;;4918288;29;20592;-60
2022/06/24 07:32:55;;;;;;;2.47;1.50;;;14.30;99.30;;;;;;4908705;29;20758;-65
2022/06/24 07:35:23;;;;;;;1.65;1.33;;;14.20;99.40;;;;;;4901924;29;20036;-64
2022/06/24 07:37:50;;;;;;;3.10;2.00;;;14.20;99.70;;;;;;4908223;29;20064;-62
2022/06/24 07:40:17;;;;;;;2.92;1.77;;;14.10;99.90;;;;;;4905112;29;20036;-62
2022/06/24 07:42:45;;;;;;;5.53;1.65;;;14.10;99.90;;;;;;4907285;29;20043;-61
2022/06/24 07:45:13;;;;;;;4.55;2.00;;;14.00;99.90;;;;;;4910267;29;20039;-63
2022/06/24 07:47:40;;;;;;;6.40;2.63;;;13.80;99.90;;;;;;4907615;29;20043;-62
2022/06/24 07:50:08;;;;;;;8.85;4.13;;;13.60;99.90;;;;;;4906794;29;20445;-66
2022/06/24 07:52:35;;;;;;;4.13;2.10;;;13.60;99.90;;;;;;4909049;29;20586;-66
2022/06/24 07:57:48;;;;;;;4.40;2.60;;;13.60;99.90;;;;;;4910073;29;20560;-64
2022/06/24 08:00:15;;;;;;;4.35;2.40;;;13.70;99.90;;;;;;4909477;29;21257;-64
2022/06/24 08:02:42;;;;;;;3.88;1.95;;;13.60;99.90;;;;;;4890242;29;20028;-63
2022/06/24 08:05:10;;;;;;;4.43;2.25;;;13.60;99.90;;;;;;4908604;29;20063;-64
2022/06/24 08:07:37;;;;;;;5.18;2.30;;;13.60;99.90;;;;;;4907190;29;20119;-67
2022/06/24 08:10:04;;;;;;;6.32;2.50;;;13.50;99.90;;;;;;4908170;29;20072;-62
2022/06/24 08:12:32;;;;;;;5.65;2.90;;;13.50;99.90;;;;;;4905775;29;20024;-64
2022/06/24 08:14:59;;;;;;;5.60;2.65;;;13.40;99.90;;;;;;4905787;29;20619;-66
2022/06/24 08:17:26;;;;;;;4.50;2.38;;;13.30;99.90;;;;;;4905543;29;20012;-66
2022/06/24 08:19:53;;;;;;;3.90;2.58;;;13.30;99.90;;;;;;4906159;29;20512;-64
2022/06/24 08:22:21;;;;;;;3.63;2.38;;;13.20;99.90;;;;;;4906572;29;20036;-67
2022/06/24 08:24:48;;;;;;;5.95;3.70;;;13.10;99.90;;;;;;4905125;29;20119;-64
2022/06/24 08:27:15;;;;;;;6.75;3.50;;;13.00;99.90;;;;;;4903222;29;20501;-64
2022/06/24 08:29:43;;;;;;;6.78;4.47;;;13.00;99.90;;;;;;4910865;29;20070;-63
2022/06/24 08:32:10;;;;;;;8.73;5.70;;;13.00;99.90;;;;;;4922653;29;20023;-61
2022/06/24 08:34:37;;;;;;;7.18;5.05;;;13.00;99.90;;;;;;4922787;29;20423;-63
2022/06/24 08:37:04;;;;;;;5.10;3.40;;;12.90;99.90;;;;;;4923205;29;20039;-64
2022/06/24 08:39:31;;;;;;;8.77;4.40;;;12.80;99.90;;;;;;4924426;29;20042;-61
2022/06/24 08:42:00;;;;;;;8.07;4.50;;;12.60;99.90;;;;;;4924928;29;20032;-61
2022/06/24 08:44:28;;;;;;;6.20;4.28;;;12.50;99.90;;;;;;4924033;29;20045;-62
2022/06/24 08:46:55;;;;;;;8.45;4.25;;;12.30;99.90;;;;;;4926177;29;20183;-61
2022/06/24 08:49:22;;;;;;;6.72;3.55;;;12.30;99.90;;;;;;4927590;29;20106;-63
2022/06/24 08:51:51;;;;;;;7.40;3.80;;;12.30;99.90;;;;;;4924673;29;20708;-61
2022/06/24 08:54:21;;;;;;;8.50;4.13;;;12.40;99.90;;;;;;4925374;29;20115;-62
2022/06/24 08:56:48;;;;;;;8.25;5.88;;;12.30;99.90;;;;;;4924675;29;20012;-65
2022/06/24 08:59:15;;;;;;;6.55;4.60;;;12.10;99.90;;;;;;4927505;29;20032;-65
2022/06/24 09:01:42;;;;;;;6.68;3.80;;;12.10;99.90;;;;;;4924857;29;20039;-62
2022/06/24 09:04:10;;;;;;;5.50;3.28;;;12.00;99.90;;;;;;4923860;29;20057;-64
2022/06/24 09:06:39;;;;;;;5.80;4.43;;;11.90;99.90;;;;;;4923693;29;20173;-62
2022/06/24 09:09:07;;;;;;;7.68;6.03;;;11.80;99.90;;;;;;4921850;29;20404;-61
2022/06/24 09:11:42;;;;;;;5.03;3.42;;;11.70;99.90;;;;;;4923250;29;20485;-61
2022/06/24 09:14:10;;;;;;;8.10;4.75;;;11.70;99.90;;;;;;4919521;29;20457;-64
2022/06/24 09:16:38;;;;;;;6.35;4.28;;;11.50;99.90;;;;;;4921632;29;20032;-64
2022/06/24 09:19:06;;;;;;;6.82;3.50;;;11.40;99.90;;;;;;4923501;29;20114;-62
2022/06/24 09:21:39;;;;;;;4.63;3.75;;;11.40;99.90;;;;;;4921810;29;20019;-63
2022/06/24 09:24:06;;;;;;;;;;;11.40;99.90;;;;;;4924556;29;20143;-64
2022/06/24 09:26:39;;;;;;;5.18;3.00;;;11.40;99.90;;;;;;4921065;29;19915;-66
2022/06/24 09:29:10;;;;;;;6.97;3.78;;;11.30;99.90;;;;;;4924238;29;20027;-64
2022/06/24 09:31:39;;;;;;;5.68;3.60;;;11.30;99.90;;;;;;4921741;29;20039;-64
2022/06/24 09:34:14;;;;;;;5.00;3.47;;;11.30;99.90;;;;;;4919212;29;20015;-64
2022/06/24 09:36:43;;;;;;;5.18;3.60;;;11.30;99.90;;;;;;4924096;29;20023;-64
2022/06/24 09:39:15;;;;;;;5.93;3.83;;;11.30;99.90;;;;;;4920307;29;20174;-63
2022/06/24 09:41:51;;;;;;;6.57;4.80;;;11.30;99.90;;;;;;4920234;29;20036;-64
2022/06/24 09:44:19;;;;;;;5.97;3.80;;;11.20;99.90;;;;;;4920406;29;20031;-67
2022/06/24 09:46:48;;;;;;;7.63;4.18;;;11.20;99.90;;;;;;4921834;29;20032;-63
2022/06/24 09:49:17;;;;;;;8.30;4.78;;;11.40;99.90;;;;;;4920645;29;20024;-64
2022/06/24 09:51:46;;;;;;;7.50;4.85;;;11.40;99.90;;;;;;4921165;29;20110;-64
2022/06/24 09:54:17;;;;;;;8.25;4.93;;;11.20;99.90;;;;;;4921643;29;20477;-62
2022/06/24 09:56:47;;;;;;;6.93;4.10;;;11.20;99.90;;;;;;4919728;29;20111;-64
2022/06/24 10:02:01;;;;;;;4.85;3.28;;;11.20;99.90;;;;;;4919265;29;20047;-65
2022/06/24 10:04:29;;;;;;;5.53;3.17;;;11.30;99.90;;;;;;4919359;29;20130;-66
2022/06/24 10:06:57;;;;;;;4.75;2.75;;;11.40;99.90;;;;;;4919650;29;20547;-64
2022/06/24 10:09:31;;;;;;;6.05;3.03;;;11.50;99.90;;;;;;4919700;29;20035;-64
2022/06/24 10:11:59;;;;;;;5.90;3.33;;;11.40;99.90;;;;;;4920405;29;20027;-63
2022/06/24 10:14:29;;;;;;;4.25;3.10;;;11.40;99.90;;;;;;4920450;29;20019;-61
2022/06/24 10:16:59;;;;;;;5.07;2.83;;;11.40;99.90;;;;;;4920960;29;20042;-61
2022/06/24 10:19:28;;;;;;;3.50;2.42;;;11.40;99.90;;;;;;4923141;29;20394;-63
2022/06/24 10:21:55;;;;;;;4.95;3.17;;;11.40;99.90;;;;;;4919733;29;20456;-61
2022/06/24 10:24:22;;;;;;;4.90;3.03;;;11.30;99.90;;;;;;4920415;29;20040;-63
2022/06/24 10:26:55;;;;;;;8.75;6.05;;;11.20;99.90;;;;;;4919141;29;20031;-61
2022/06/24 10:29:28;;;;;;;7.03;3.88;;;11.30;99.90;;;;;;4923205;29;20023;-62
2022/06/24 10:31:59;;;;;;;4.35;3.22;;;11.30;99.90;;;;;;4920751;29;20380;-63
2022/06/24 10:34:26;;;;;;;3.88;3.03;;;11.30;99.90;;;;;;4919314;29;20454;-63
2022/06/24 10:36:57;;;;;;;4.93;3.22;;;11.40;99.90;;;;;;4923339;29;20416;-62
2022/06/24 10:39:30;;;;;;;3.60;2.40;;;11.40;99.90;;;;;;4921246;29;20468;-62
2022/06/24 10:42:06;;;;;;;4.60;2.85;;;11.40;99.90;;;;;;4921294;29;20032;-64
2022/06/24 10:44:38;;;;;;;4.15;2.92;;;11.40;99.90;;;;;;4919018;29;20039;-63
2022/06/24 10:47:05;;;;;;;3.47;2.57;;;11.50;99.90;;;;;;4922814;29;20031;-62
2022/06/24 10:50:00;;;;;;;4.90;2.75;;;11.50;99.90;;;;;;4921692;29;20035;-67
2022/06/24 10:52:32;;;;;;;5.30;3.00;;;11.50;99.90;;;;;;4904084;29;20036;-62
2022/06/24 10:55:30;;;;;;;4.87;3.37;;;11.50;99.90;;;;;;4923657;29;20043;-64
2022/06/24 10:58:04;;;;;;;3.60;2.50;;;11.50;99.90;;;;;;4926537;29;20031;-63
2022/06/24 11:00:52;;;;;;;4.15;2.50;;;11.50;99.90;;;;;;4922344;29;20032;-64
2022/06/24 11:03:29;;;;;;;4.43;3.10;;;11.40;99.90;;;;;;4921025;29;20084;-65
2022/06/24 11:05:56;;;;;;;4.88;3.63;;;11.30;99.90;;;;;;4921136;29;20027;-61
2022/06/24 11:08:25;;;;;;;4.70;3.80;;;11.30;99.90;;;;;;4920443;29;20023;-63
2022/06/24 11:10:53;;;;;;;6.07;4.13;;;11.30;99.90;;;;;;4919869;29;20539;-62
2022/06/24 11:13:23;;;;;;;4.97;3.22;;;11.30;99.90;;;;;;4919878;29;20034;-66
2022/06/24 11:15:53;;;;;;;4.90;2.90;;;11.30;99.90;;;;;;4920028;29;20090;-66
2022/06/24 11:18:23;;;;;;;4.90;3.35;;;11.30;99.90;;;;;;4920612;29;20455;-61
2022/06/24 11:20:56;;;;;;;4.47;2.45;;;11.30;99.90;;;;;;4920102;29;20028;-62
2022/06/24 11:23:26;;;;;;;5.97;2.50;;;11.40;99.90;;;;;;4921885;29;20019;-61
2022/06/24 11:26:14;;;;;;;5.47;2.60;;;11.50;99.90;;;;;;4920453;29;20019;-62
2022/06/24 11:28:43;;;;;;;5.03;3.05;;;11.40;99.90;;;;;;4919946;29;20036;-65
2022/06/24 11:31:33;;;;;;;3.63;2.83;;;11.40;99.90;;;;;;4900407;29;20417;-63
2022/06/24 11:34:03;;;;;;;5.03;3.35;;;11.30;99.90;;;;;;4917742;29;20098;-62
2022/06/24 11:36:34;;;;;;;5.30;3.20;;;11.20;99.90;;;;;;4916541;29;20481;-61
2022/06/24 11:39:09;;;;;;;5.38;2.75;;;11.20;99.90;;;;;;4915859;29;20519;-61
2022/06/24 11:41:49;;;;;;;4.18;3.00;;;11.10;99.90;;;;;;4919157;29;20230;-65
2022/06/24 11:44:16;;;;;;;7.15;3.28;;;11.10;99.90;;;;;;4919153;29;20386;-64
2022/06/24 11:46:51;;;;;;;5.82;4.03;;;11.00;99.90;;;;;;4919352;29;20396;-64
2022/06/24 11:49:19;;;;;;;4.28;3.00;;;11.10;99.90;;;;;;4904824;29;20036;-62
2022/06/24 11:51:48;;;;;;;5.25;3.00;;;11.00;99.90;;;;;;4921547;29;20295;-64
2022/06/24 11:54:16;;;;;;;4.07;3.15;;;10.90;99.90;;;;;;4922437;29;20440;-64
2022/06/24 11:56:44;;;;;;;6.43;3.90;;;10.90;99.90;;;;;;4921518;29;20036;-62
2022/06/24 11:59:11;;;;;;;4.97;3.00;;;11.00;99.90;;;;;;4923184;29;20040;-63
2022/06/24 12:01:40;;;;;;;5.05;2.80;;;11.00;99.90;;;;;;4923026;29;20442;-66
2022/06/24 12:04:09;;;;;;;3.97;2.70;;;11.10;99.90;;;;;;4924398;29;20548;-66
2022/06/24 12:06:38;;;;;;;6.45;3.58;;;11.10;99.90;;;;;;4908721;29;20055;-63
2022/06/24 12:09:06;;;;;;;4.88;3.35;;;10.90;99.90;;;;;;4924121;29;20027;-65
2022/06/24 12:11:43;;;;;;;5.90;3.30;;;10.90;99.90;;;;;;4923476;29;20031;-63
2022/06/24 12:14:14;;;;;;;5.75;3.25;;;11.00;99.90;;;;;;4923058;29;20028;-63
2022/06/24 12:16:59;;;;;;;5.05;2.95;;;11.00;99.90;;;;;;4923974;29;20039;-61
2022/06/24 12:19:27;;;;;;;4.47;2.70;;;11.00;99.90;;;;;;4922444;29;20159;-66
2022/06/24 12:22:06;;;;;;;4.13;2.70;;;11.10;99.90;;;;;;4923503;29;20024;-66
2022/06/24 12:24:35;;;;;;;4.95;3.20;;;11.00;99.90;;;;;;4923801;29;20035;-62
2022/06/24 12:27:04;;;;;;;5.05;2.70;;;10.90;99.90;;;;;;4921732;29;20123;-62
2022/06/24 12:29:33;;;;;;;5.68;3.10;;;10.90;99.90;;;;;;4922456;29;20294;-64
2022/06/24 12:32:02;;;;;;;4.35;3.13;;;10.80;99.90;;;;;;4921838;29;20035;-63
2022/06/24 12:34:35;;;;;;;3.80;2.58;;;10.80;99.90;;;;;;4920003;29;20046;-67
2022/06/24 12:37:10;;;;;;;4.60;2.47;;;10.70;99.90;;;;;;4922628;29;20523;-63
2022/06/24 12:39:43;;;;;;;5.63;2.67;;;10.70;99.90;;;;;;4921240;29;20040;-62
2022/06/24 12:42:14;;;;;;;;;;;10.70;99.90;;;;;;4924127;29;20078;-66
2022/06/24 12:44:53;;;;;;;3.53;2.53;;;10.70;99.90;;;;;;4924968;29;19915;-67
2022/06/24 12:53:05;;;;;;;3.53;2.70;;;10.70;99.90;;;;;;4924663;29;20041;-66
2022/06/24 12:55:34;;;;;;;4.05;2.53;;;10.50;99.90;;;;;;4924877;29;20055;-65
2022/06/24 12:58:02;;;;;;;4.55;2.85;;;10.40;99.90;;;;;;4925347;29;20428;-62
2022/06/24 13:00:30;;;;;;;4.75;3.00;;;10.20;99.90;;;;;;4925761;29;20069;-62
2022/06/24 13:02:58;;;;;;;5.70;3.92;;;10.30;99.90;;;;;;4925183;29;20043;-63
2022/06/24 13:05:26;;;;;;;5.40;3.70;;;10.20;99.90;;;;;;4925425;29;20039;-62
2022/06/24 13:07:54;;;;;;;4.50;3.25;;;10.20;99.90;;;;;;4923513;29;20035;-65
2022/06/24 13:10:21;;;;;;;6.90;4.00;;;10.10;99.90;;;;;;4924080;29;20424;-65
2022/06/24 13:12:50;;;;;;;6.22;3.50;;;10.00;99.90;;;;;;4925096;29;20035;-65
2022/06/24 13:15:17;;;;;;;5.88;3.85;;;9.80;99.90;;;;;;4924920;29;20023;-61
2022/06/24 13:17:45;;;;;;;4.95;3.90;;;9.80;99.90;;;;;;4925944;29;20039;-61